Time;durP1;ratioP1;P1;durP2;ratioP2;P2;SDS_P1;SDS_P2;PMS_P1;PMS_P2;Temp;Humidity;BMP_temperature;BMP_pressure;BME280_temperature;BME280_humidity;BME280_pressure;Samples;Min_cycle;Max_cycle;Signal;HPM_P1;HPM_P2
2022/08/25 00:01:56;;;;;;;11.38;5.70;;;;;;;24.69;100.00;98462.28;5104001;28;20031;-93
2022/08/25 00:04:23;;;;;;;11.05;5.53;;;;;;;25.10;100.00;98462.91;5101392;28;20117;-92
2022/08/25 00:06:49;;;;;;;12.77;5.80;;;;;;;25.09;100.00;98467.38;5077669;28;20114;-92
2022/08/25 00:09:18;;;;;;;13.27;6.25;;;;;;;25.02;100.00;98477.69;5067769;28;20479;-91
2022/08/25 00:11:44;;;;;;;12.85;6.32;;;;;;;25.94;100.00;98473.56;5086245;28;20043;-91
2022/08/25 00:14:14;;;;;;;15.02;6.10;;;;;;;25.48;100.00;98467.22;5072642;28;20021;-91
2022/08/25 00:16:40;;;;;;;12.23;5.93;;;;;;;25.83;100.00;98471.72;5067795;28;20024;-91
2022/08/25 00:19:10;;;;;;;11.85;6.13;;;;;;;25.62;100.00;98468.84;5062832;28;20556;-93
2022/08/25 00:21:36;;;;;;;12.75;5.32;;;;;;;25.07;100.00;98469.31;5068692;28;20101;-93
2022/08/25 00:24:02;;;;;;;12.60;5.95;;;;;;;25.36;100.00;98480.53;5086672;28;20032;-92
2022/08/25 00:26:29;;;;;;;11.85;5.70;;;;;;;25.39;100.00;98500.81;5069233;28;20024;-93
2022/08/25 00:28:55;;;;;;;12.77;6.35;;;;;;;25.41;100.00;98492.69;5068933;28;20132;-92
2022/08/25 00:31:22;;;;;;;15.63;6.47;;;;;;;25.73;100.00;98482.25;5070006;28;20036;-92
2022/08/25 00:33:50;;;;;;;11.73;5.35;;;;;;;24.50;100.00;98460.06;5070259;28;20044;-92
2022/08/25 00:36:17;;;;;;;13.45;6.47;;;;;;;24.54;100.00;98450.88;5065994;28;20039;-91
2022/08/25 00:38:45;;;;;;;12.85;6.43;;;;;;;24.20;100.00;98446.13;5069592;28;20048;-92
2022/08/25 00:41:14;;;;;;;14.23;7.30;;;;;;;24.51;100.00;98449.28;5057356;28;20040;-93
2022/08/25 00:43:40;;;;;;;13.40;7.05;;;;;;;24.82;100.00;98473.78;5069763;28;20119;-91
2022/08/25 00:46:08;;;;;;;13.90;6.65;;;;;;;25.38;100.00;98477.75;5081603;28;20127;-93
2022/08/25 00:48:33;;;;;;;12.98;6.90;;;;;;;25.20;100.00;98471.94;5066355;28;20054;-92
2022/08/25 00:51:01;;;;;;;15.52;7.72;;;;;;;25.14;100.00;98467.91;5067472;28;20039;-93
2022/08/25 00:53:29;;;;;;;14.10;6.03;;;;;;;25.28;100.00;98458.88;5067941;28;20143;-91
2022/08/25 00:55:57;;;;;;;12.20;6.32;;;;;;;25.07;100.00;98455.09;5067945;28;20039;-91
2022/08/25 00:58:27;;;;;;;13.70;7.10;;;;;;;24.69;100.00;98455.16;5084905;28;20017;-93
2022/08/25 01:00:56;;;;;;;12.38;6.50;;;;;;;24.35;100.00;98446.00;5086332;28;20456;-92
2022/08/25 01:03:23;;;;;;;14.68;6.95;;;;;;;24.37;100.00;98442.28;5069831;28;20043;-91
2022/08/25 01:05:50;;;;;;;19.20;6.63;;;;;;;24.78;100.00;98452.78;5068701;28;20519;-90
2022/08/25 01:08:20;;;;;;;14.90;7.43;;;;;;;24.48;100.00;98452.19;5069236;28;20048;-93
2022/08/25 01:10:48;;;;;;;16.67;7.18;;;;;;;24.51;100.00;98457.28;5078864;28;20028;-90
2022/08/25 01:13:22;;;;;;;14.10;7.53;;;;;;;24.83;100.00;98462.16;5100906;28;20101;-91
2022/08/25 01:15:53;;;;;;;13.68;6.30;;;;;;;23.64;100.00;98440.22;5076385;28;20555;-91
2022/08/25 01:18:20;;;;;;;11.38;5.30;;;;;;;23.77;100.00;98440.22;5071606;28;20036;-92
2022/08/25 01:20:54;;;;;;;12.10;4.70;;;;;;;23.63;100.00;98442.03;5074081;28;20009;-91
2022/08/25 01:23:21;;;;;;;12.15;4.43;;;;;;;23.82;100.00;98438.94;5093707;28;20626;-91
2022/08/25 01:26:08;;;;;;;11.27;4.30;;;;;;;23.25;100.00;98448.09;5095992;28;20020;-91
2022/08/25 01:28:37;;;;;;;10.18;4.53;;;;;;;23.22;100.00;98443.00;5071520;28;20081;-91
2022/08/25 01:31:04;;;;;;;12.73;4.03;;;;;;;23.62;100.00;98448.31;5069740;28;20032;-91
2022/08/25 01:33:30;;;;;;;11.07;3.85;;;;;;;23.93;100.00;98456.06;5067960;28;20146;-91
2022/08/25 01:35:55;;;;;;;12.00;4.55;;;;;;;23.81;100.00;98449.72;5070104;28;20120;-92
2022/08/25 01:38:22;;;;;;;13.05;5.40;;;;;;;23.77;100.00;98448.22;5066833;28;20029;-91
2022/08/25 01:40:47;;;;;;;11.05;4.90;;;;;;;23.48;100.00;98454.56;5068064;28;20661;-91
2022/08/25 01:43:45;;;;;;;11.50;5.50;;;;;;;23.98;100.00;98448.56;5067548;28;20028;-93
2022/08/25 01:46:11;;;;;;;13.63;5.47;;;;;;;23.51;100.00;98449.03;5023077;28;20052;-93
2022/08/25 01:48:37;;;;;;;12.18;6.22;;;;;;;23.47;100.00;98436.88;5068944;28;20032;-92
2022/08/25 01:51:03;;;;;;;14.32;6.00;;;;;;;23.01;100.00;98431.94;5059954;28;20478;-92
2022/08/25 01:53:30;;;;;;;13.93;6.43;;;;;;;22.78;100.00;98431.63;5065525;28;20040;-93
2022/08/25 01:56:04;;;;;;;12.70;6.80;;;;;;;23.17;100.00;98432.66;5084648;28;20024;-91
2022/08/25 01:58:33;;;;;;;13.30;6.47;;;;;;;23.27;100.00;98416.06;5065649;28;20059;-91
2022/08/25 02:01:02;;;;;;;13.30;6.75;;;;;;;23.38;100.00;98431.31;5065391;28;20029;-89
2022/08/25 02:03:28;;;;;;;13.02;6.43;;;;;;;23.35;100.00;98445.69;5064724;28;20056;-91
2022/08/25 02:05:55;;;;;;;13.70;6.97;;;;;;;23.61;100.00;98448.41;5081502;28;20128;-91
2022/08/25 02:08:22;;;;;;;17.33;6.60;;;;;;;23.35;100.00;98454.53;5083101;28;20038;-91
2022/08/25 02:10:48;;;;;;;12.32;6.38;;;;;;;22.82;100.00;98434.94;5067613;28;20024;-93
2022/08/25 02:13:14;;;;;;;12.82;6.20;;;;;;;22.51;100.00;98426.25;5068679;28;20044;-93
2022/08/25 02:15:43;;;;;;;12.70;6.15;;;;;;;23.08;100.00;98427.06;5084807;28;20028;-92
2022/08/25 02:18:09;;;;;;;13.98;5.45;;;;;;;23.01;100.00;98424.78;5068872;28;20436;-92
2022/08/25 02:20:36;;;;;;;16.42;5.95;;;;;;;22.64;100.00;98413.03;5068323;28;20028;-94
2022/08/25 02:23:03;;;;;;;12.45;5.28;;;;;;;23.67;100.00;98434.69;5071824;28;20101;-93
2022/08/25 02:25:29;;;;;;;11.40;4.63;;;;;;;23.17;100.00;98419.38;5087762;28;20020;-92
2022/08/25 02:27:55;;;;;;;12.82;5.22;;;;;;;22.74;100.00;98422.16;5088922;28;20028;-92
2022/08/25 02:30:20;;;;;;;12.23;4.57;;;;;;;23.00;100.00;98427.56;5086396;28;20496;-92
2022/08/25 02:32:46;;;;;;;15.70;5.47;;;;;;;22.62;100.00;98438.88;5064068;28;20052;-92
2022/08/25 02:35:12;;;;;;;14.90;4.88;;;;;;;22.67;100.00;98439.41;5067219;28;20090;-92
2022/08/25 02:37:37;;;;;;;12.20;4.55;;;;;;;22.79;100.00;98432.47;5082711;28;20098;-90
2022/08/25 02:40:07;;;;;;;10.98;4.55;;;;;;;22.76;100.00;98425.53;5066452;28;20024;-92
2022/08/25 02:42:33;;;;;;;11.05;4.90;;;;;;;22.43;100.00;98424.06;5068009;28;20024;-91
2022/08/25 02:44:58;;;;;;;18.25;5.53;;;;;;;22.20;100.00;98432.59;5066728;28;20035;-91
2022/08/25 02:47:24;;;;;;;14.60;5.07;;;;;;;22.66;100.00;98432.41;5062682;28;20065;-91
2022/08/25 02:49:51;;;;;;;13.63;5.25;;;;;;;22.45;100.00;98432.81;5065457;28;20033;-91
2022/08/25 02:52:17;;;;;;;13.68;5.00;;;;;;;22.21;100.00;98434.31;5066825;28;20032;-92
2022/08/25 02:54:43;;;;;;;15.50;4.95;;;;;;;22.35;100.00;98425.53;5066629;28;20049;-92
2022/08/25 02:57:10;;;;;;;13.50;4.80;;;;;;;22.52;100.00;98422.66;5066160;28;20024;-92
2022/08/25 02:59:37;;;;;;;12.00;4.40;;;;;;;22.67;100.00;98423.47;5096192;28;20043;-92
2022/08/25 03:02:04;;;;;;;14.10;4.78;;;;;;;22.35;100.00;98420.22;5071918;28;20033;-92
2022/08/25 03:04:30;;;;;;;13.27;4.68;;;;;;;22.18;100.00;98414.09;5069288;28;20045;-92
2022/08/25 03:06:57;;;;;;;12.38;4.63;;;;;;;22.12;100.00;98399.41;5066592;28;20074;-92
2022/08/25 03:09:23;;;;;;;12.68;4.82;;;;;;;22.49;100.00;98409.56;5068938;28;20032;-91
2022/08/25 03:11:49;;;;;;;13.10;4.32;;;;;;;22.40;100.00;98411.00;5064905;28;20480;-92
2022/08/25 03:14:15;;;;;;;16.08;5.22;;;;;;;22.16;100.00;98406.25;5066676;28;20040;-91
2022/08/25 03:16:42;;;;;;;14.10;4.80;;;;;;;22.42;100.00;98402.91;5066715;28;20028;-91
2022/08/25 03:19:08;;;;;;;12.65;4.63;;;;;;;21.74;100.00;98394.66;5073813;28;20024;-92
2022/08/25 03:21:36;;;;;;;13.55;5.07;;;;;;;21.83;100.00;98388.78;5066440;28;20425;-93
2022/08/25 03:24:02;;;;;;;14.05;4.78;;;;;;;21.79;100.00;98370.50;5073658;28;20019;-93
2022/08/25 03:29:12;;;;;;;11.02;4.60;;;;;;;22.07;100.00;98380.25;5079984;28;20523;-92
2022/08/25 03:31:38;;;;;;;12.32;4.53;;;;;;;22.17;100.00;98383.19;5070369;28;20731;-91
2022/08/25 03:34:08;;;;;;;10.63;4.53;;;;;;;22.15;100.00;98387.75;5086953;28;20036;-92
2022/08/25 03:36:33;;;;;;;12.18;4.70;;;;;;;;;;5111921;28;20016;-92
2022/08/25 03:38:59;;;;;;;12.80;4.05;;;;;;;22.23;100.00;98382.81;5103066;28;20033;-92
2022/08/25 03:41:28;;;;;;;12.68;4.55;;;;;;;22.40;100.00;98397.72;5072966;28;20033;-94
2022/08/25 03:43:54;;;;;;;11.30;4.25;;;;;;;22.09;100.00;98389.00;5066358;28;20029;-92
2022/08/25 03:46:26;;;;;;;10.65;4.85;;;;;;;22.09;100.00;98382.84;5072252;28;20032;-92
2022/08/25 03:48:52;;;;;;;11.13;4.38;;;;;;;21.74;100.00;98389.38;5070877;28;20032;-92
2022/08/25 03:54:29;;;;;;;10.23;4.18;;;;;;;22.30;100.00;98392.09;4979248;28;20130;-91
2022/08/25 03:56:55;;;;;;;11.35;4.50;;;;;;;22.55;100.00;98387.06;4990233;28;20050;-93
2022/08/25 03:59:20;;;;;;;9.38;3.85;;;;;;;22.82;100.00;98392.38;4988780;28;20034;-93
2022/08/25 04:01:47;;;;;;;11.38;3.88;;;;;;;22.74;100.00;98390.25;4972204;28;20033;-93
2022/08/25 04:04:14;;;;;;;12.18;4.45;;;;;;;22.98;100.00;98384.28;4988722;28;20034;-93
2022/08/25 04:06:42;;;;;;;10.73;4.20;;;;;;;22.91;100.00;98389.13;4989791;28;20116;-93
2022/08/25 04:09:08;;;;;;;11.82;4.53;;;;;;;22.89;100.00;98379.56;4988604;28;20057;-91
2022/08/25 04:11:37;;;;;;;13.30;4.30;;;;;;;22.68;100.00;98378.19;4989364;28;20060;-94
2022/08/25 04:14:03;;;;;;;10.50;4.25;;;;;;;22.89;100.00;98384.88;5005237;28;20042;-92
2022/08/25 04:16:31;;;;;;;12.40;4.53;;;;;;;23.50;100.00;98378.13;4987895;28;20034;-91
2022/08/25 04:19:01;;;;;;;11.15;4.93;;;;;;;22.52;100.00;98377.50;4971735;28;20243;-92
2022/08/25 04:21:27;;;;;;;11.18;4.53;;;;;;;22.84;100.00;98372.72;4988451;28;20038;-91
2022/08/25 04:23:54;;;;;;;10.25;4.60;;;;;;;22.78;100.00;98382.91;4980292;28;20661;-91
2022/08/25 04:26:25;;;;;;;10.55;4.05;;;;;;;22.68;100.00;98375.53;4972100;28;20030;-91
2022/08/25 04:28:52;;;;;;;10.43;4.60;;;;;;;22.55;100.00;98381.75;4972022;28;20034;-92
2022/08/25 04:31:18;;;;;;;10.48;4.07;;;;;;;22.86;100.00;98380.59;5019710;28;20044;-92
2022/08/25 04:33:46;;;;;;;10.68;3.88;;;;;;;22.60;100.00;98376.97;5071111;28;20056;-92
2022/08/25 04:36:14;;;;;;;9.60;4.20;;;;;;;22.46;100.00;98365.44;5068616;28;20029;-92
2022/08/25 04:38:41;;;;;;;10.10;4.13;;;;;;;22.62;100.00;98362.63;5069470;28;20636;-92
2022/08/25 04:41:09;;;;;;;10.63;4.10;;;;;;;21.74;100.00;98346.91;5069393;28;20115;-92
2022/08/25 04:43:36;;;;;;;9.50;3.75;;;;;;;22.86;100.00;98351.34;5069292;28;20038;-93
2022/08/25 04:46:21;;;;;;;7.63;3.25;;;;;;;22.08;100.00;98351.91;5061009;28;20071;-94
2022/08/25 04:48:48;;;;;;;7.70;3.10;;;;;;;22.29;100.00;98362.97;5060326;28;20040;-93
2022/08/25 04:51:17;;;;;;;7.38;2.53;;;;;;;22.13;100.00;98352.47;5090877;28;20028;-94
2022/08/25 04:53:42;;;;;;;8.38;2.85;;;;;;;22.30;100.00;98346.09;5068553;28;20041;-91
2022/08/25 04:56:11;;;;;;;10.90;3.20;;;;;;;22.15;100.00;98338.13;5084264;28;20095;-91
2022/08/25 04:58:39;;;;;;;8.63;2.75;;;;;;;22.49;100.00;98354.63;5070796;28;20032;-95
2022/08/25 05:01:14;;;;;;;8.73;2.80;;;;;;;22.43;100.00;98355.00;5068664;28;20149;-93
2022/08/25 05:03:40;;;;;;;7.82;2.55;;;;;;;23.35;100.00;98373.84;5069635;28;20044;-93
2022/08/25 05:06:07;;;;;;;8.43;2.65;;;;;;;23.45;100.00;98371.41;5071298;28;20028;-93
2022/08/25 05:08:36;;;;;;;6.30;2.10;;;;;;;23.11;100.00;98371.00;5066884;28;20047;-94
2022/08/25 05:11:07;;;;;;;8.65;2.00;;;;;;;23.04;100.00;98373.22;5088889;28;20032;-94
2022/08/25 05:13:33;;;;;;;7.05;2.30;;;;;;;23.50;100.00;98387.91;5070138;28;20028;-94
2022/08/25 05:16:00;;;;;;;7.95;2.58;;;;;;;22.56;100.00;98384.31;5066501;28;20032;-92
2022/08/25 05:18:28;;;;;;;9.10;2.40;;;;;;;22.23;100.00;98371.34;5063435;28;20020;-94
2022/08/25 05:20:55;;;;;;;7.85;2.08;;;;;;;21.97;100.00;98358.72;5068455;28;20032;-93
2022/08/25 05:23:22;;;;;;;7.30;1.90;;;;;;;22.77;100.00;98365.25;5064403;28;20027;-94
2022/08/25 05:25:49;;;;;;;6.72;1.83;;;;;;;22.11;100.00;98359.69;5061288;28;20532;-93
2022/08/25 05:28:16;;;;;;;5.70;1.65;;;;;;;22.50;100.00;98377.59;5085365;28;20780;-94
2022/08/25 05:30:42;;;;;;;5.25;1.60;;;;;;;22.22;100.00;98388.22;5066448;28;20035;-92
2022/08/25 05:33:09;;;;;;;5.80;1.48;;;;;;;22.07;100.00;98380.25;5055527;28;20075;-92
2022/08/25 05:35:38;;;;;;;7.15;1.50;;;;;;;22.67;100.00;98397.75;5069210;28;20034;-92
2022/08/25 05:38:05;;;;;;;5.40;1.30;;;;;;;22.67;100.00;98396.88;5065714;28;20459;-92
2022/08/25 05:40:31;;;;;;;5.50;1.52;;;;;;;22.65;100.00;98391.66;5068779;28;20063;-92
2022/08/25 05:42:57;;;;;;;5.40;1.42;;;;;;;22.36;100.00;98390.88;5092759;28;20025;-92
2022/08/25 05:45:23;;;;;;;6.38;1.42;;;;;;;22.51;100.00;98397.03;5077110;28;20044;-92
2022/08/25 05:47:48;;;;;;;7.85;1.55;;;;;;;23.10;100.00;98404.72;5080404;28;20040;-93
2022/08/25 05:50:15;;;;;;;4.22;1.20;;;;;;;22.73;100.00;98407.13;5085837;28;20028;-92
2022/08/25 05:52:40;;;;;;;6.05;1.27;;;;;;;22.14;100.00;98400.19;5111962;28;20027;-94
2022/08/25 05:55:07;;;;;;;4.47;1.20;;;;;;;22.18;100.00;98395.53;5104379;28;20101;-93
2022/08/25 05:57:33;;;;;;;5.25;1.15;;;;;;;22.31;100.00;98396.47;5074089;28;20112;-94
2022/08/25 05:59:59;;;;;;;5.53;1.30;;;;;;;22.49;100.00;98393.59;5068793;28;20557;-93
2022/08/25 06:02:40;;;;;;;5.43;1.30;;;;;;;22.20;100.00;98398.06;5088062;28;20115;-93
2022/08/25 06:05:19;;;;;;;5.82;1.50;;;;;;;22.94;100.00;98406.69;5088493;28;20024;-93
2022/08/25 06:07:50;;;;;;;5.40;1.30;;;;;;;22.07;100.00;98401.50;5089189;28;20024;-93
2022/08/25 06:10:18;;;;;;;5.45;1.48;;;;;;;22.35;100.00;98391.81;5071262;28;20035;-94
2022/08/25 06:12:45;;;;;;;4.90;1.20;;;;;;;22.58;100.00;98395.69;5067172;28;20033;-93
2022/08/25 06:15:15;;;;;;;4.60;1.20;;;;;;;22.36;100.00;98392.69;5066088;28;20052;-94
2022/08/25 06:17:41;;;;;;;6.28;1.48;;;;;;;21.82;100.00;98389.75;5065813;28;20055;-94
2022/08/25 06:20:08;;;;;;;6.28;1.40;;;;;;;22.34;100.00;98403.44;5067070;28;20036;-94
2022/08/25 06:25:56;;;;;;;6.57;1.40;;;;;;;23.03;100.00;98422.03;5087942;28;20047;-92
2022/08/25 06:28:22;;;;;;;4.55;1.20;;;;;;;22.70;100.00;98415.31;5105306;28;20035;-93
2022/08/25 06:30:47;;;;;;;3.97;1.00;;;;;;;22.36;100.00;98412.13;5079822;28;20050;-92
2022/08/25 06:36:24;;;;;;;4.38;1.10;;;;;;;21.50;100.00;98399.59;4975334;28;20069;-94
2022/08/25 06:38:51;;;;;;;3.90;1.10;;;;;;;22.16;100.00;98411.56;4967159;28;20601;-92
2022/08/25 06:41:17;;;;;;;5.47;1.27;;;;;;;22.28;100.00;98409.94;4968264;28;20023;-93
2022/08/25 06:43:43;;;;;;;3.30;0.90;;;;;;;22.52;100.00;98419.13;4967136;28;20034;-92
2022/08/25 06:46:16;;;;;;;3.53;0.85;;;;;;;22.37;100.00;98418.31;4967238;28;20046;-91
2022/08/25 06:48:42;;;;;;;5.80;1.40;;;;;;;22.75;100.00;98417.66;4967694;28;20399;-93
2022/08/25 06:51:10;;;;;;;3.65;1.08;;;;;;;22.87;100.00;98432.84;4967559;28;20031;-93
2022/08/25 06:53:36;;;;;;;3.75;1.00;;;;;;;22.89;100.00;98425.59;4964667;28;20162;-95
2022/08/25 06:56:03;;;;;;;4.40;1.10;;;;;;;22.67;100.00;98428.78;4967019;28;20035;-93
2022/08/25 06:58:29;;;;;;;4.75;1.00;;;;;;;23.24;100.00;98435.75;4967070;28;20067;-91
2022/08/25 07:00:54;;;;;;;5.75;0.93;;;;;;;22.93;100.00;98435.06;4968523;28;20046;-94
2022/08/25 07:03:20;;;;;;;7.15;1.00;;;;;;;23.00;100.00;98435.53;4967053;28;20038;-93
2022/08/25 07:05:53;;;;;;;4.65;1.30;;;;;;;22.36;100.00;98428.06;4966977;28;20035;-93
2022/08/25 07:08:19;;;;;;;6.13;1.10;;;;;;;22.51;100.00;98431.59;4985309;28;20168;-93
2022/08/25 07:10:45;;;;;;;3.55;1.10;;;;;;;22.63;100.00;98443.22;4973242;28;20120;-92
2022/08/25 07:13:11;;;;;;;4.43;0.88;;;;;;;23.07;100.00;98443.97;5047283;28;20061;-92
2022/08/25 07:15:38;;;;;;;4.38;1.10;;;;;;;22.61;100.00;98445.97;5070935;28;20373;-93
2022/08/25 07:18:05;;;;;;;9.30;1.30;;;;;;;22.95;100.00;98450.94;5072209;28;20032;-92
2022/08/25 07:20:32;;;;;;;6.90;1.10;;;;;;;22.45;100.00;98458.53;5080243;28;20031;-92
2022/08/25 07:22:58;;;;;;;5.13;1.00;;;;;;;21.69;100.00;98446.31;5075784;28;20020;-92
2022/08/25 07:25:24;;;;;;;4.00;1.20;;;;;;;22.03;100.00;98452.25;5092068;28;20042;-93
2022/08/25 07:27:49;;;;;;;4.80;1.25;;;;;;;22.47;100.00;98464.59;5091222;28;20068;-94
2022/08/25 07:30:16;;;;;;;3.60;1.00;;;;;;;22.04;100.00;98459.25;5085209;28;20020;-93
2022/08/25 07:32:41;;;;;;;5.30;1.10;;;;;;;22.69;100.00;98464.13;5070390;28;20048;-92
2022/08/25 07:35:17;;;;;;;4.63;1.20;;;;;;;23.26;100.00;98468.44;5069544;28;20036;-92
2022/08/25 07:37:49;;;;;;;4.63;1.30;;;;;;;22.04;100.00;98461.91;5068445;28;20040;-93
2022/08/25 07:40:21;;;;;;;4.30;1.20;;;;;;;22.62;100.00;98466.28;5055173;28;20067;-94
2022/08/25 07:42:52;;;;;;;4.65;1.20;;;;;;;22.41;100.00;98459.69;5066099;28;20045;-93
2022/08/25 07:45:24;;;;;;;4.97;1.30;;;;;;;22.66;100.00;98454.53;5052567;28;20025;-93
2022/08/25 07:47:52;;;;;;;5.47;1.20;;;;;;;21.59;100.00;98448.66;5069665;28;20029;-94
2022/08/25 07:50:18;;;;;;;4.88;1.20;;;;;;;21.60;100.00;98442.41;5070242;28;20070;-93
2022/08/25 07:52:45;;;;;;;5.28;1.20;;;;;;;21.81;100.00;98432.31;5074038;28;20096;-93
2022/08/25 07:55:10;;;;;;;5.53;1.42;;;;;;;21.49;100.00;98443.03;5085597;28;20077;-93
2022/08/25 07:57:39;;;;;;;5.15;1.20;;;;;;;21.99;100.00;98451.59;5099925;28;20052;-94
2022/08/25 08:00:06;;;;;;;5.93;1.45;;;;;;;22.33;100.00;98461.00;5083933;28;20079;-93
2022/08/25 08:02:31;;;;;;;6.50;1.30;;;;;;;21.68;100.00;98458.72;5073688;28;20028;-92
2022/08/25 08:04:58;;;;;;;5.70;1.50;;;;;;;21.20;100.00;98453.53;5075844;28;20020;-92
2022/08/25 08:07:25;;;;;;;5.38;1.20;;;;;;;21.61;100.00;98449.41;5071720;28;20040;-94
2022/08/25 08:09:52;;;;;;;5.80;1.60;;;;;;;22.55;100.00;98457.00;5095883;28;20004;-92
2022/08/25 08:12:18;;;;;;;6.13;1.30;;;;;;;22.10;100.00;98458.88;5088109;28;20043;-91
2022/08/25 08:14:44;;;;;;;6.63;1.50;;;;;;;21.29;100.00;98449.47;5074373;28;20028;-92
2022/08/25 08:17:10;;;;;;;7.05;2.00;;;;;;;21.28;100.00;98439.81;5075823;28;20037;-93
2022/08/25 08:19:36;;;;;;;5.80;1.60;;;;;;;22.46;100.00;98458.44;5076033;28;20480;-92
2022/08/25 08:22:10;;;;;;;11.95;2.08;;;;;;;22.46;100.00;98463.78;5085176;28;20038;-92
2022/08/25 08:24:38;;;;;;;5.28;1.58;;;;;;;22.05;100.00;98463.63;5085127;28;20424;-94
2022/08/25 08:27:07;;;;;;;8.45;1.73;;;;;;;21.73;100.00;98454.00;5069855;28;20115;-93
2022/08/25 08:29:37;;;;;;;7.05;1.65;;;;;;;22.11;100.00;98463.25;5070950;28;20035;-92
2022/08/25 08:32:04;;;;;;;5.93;1.60;;;;;;;22.14;100.00;98468.38;5072278;28;20115;-91
2022/08/25 08:34:31;;;;;;;6.68;1.58;;;;;;;21.74;100.00;98455.72;5069895;28;20044;-92
2022/08/25 08:36:58;;;;;;;6.40;1.50;;;;;;;21.28;100.00;98450.41;5072203;28;20032;-92
2022/08/25 08:39:24;;;;;;;5.90;1.70;;;;;;;21.57;100.00;98453.19;5072124;28;20028;-92
2022/08/25 08:42:17;;;;;;;6.10;1.80;;;;;;;21.77;100.00;98455.53;5070226;28;20020;-92
2022/08/25 08:44:55;;;;;;;7.00;1.88;;;;;;;22.21;100.00;98458.22;5069588;28;20039;-92
2022/08/25 08:47:51;;;;;;;8.23;1.73;;;;;;;22.36;100.00;98465.28;5067199;28;20040;-93
2022/08/25 08:50:29;;;;;;;7.20;1.77;;;;;;;22.10;100.00;98467.72;5051372;28;20025;-91
2022/08/25 08:53:15;;;;;;;7.60;1.73;;;;;;;22.21;100.00;98468.84;5074369;28;20056;-94
2022/08/25 08:55:49;;;;;;;6.75;1.90;;;;;;;21.20;100.00;98458.81;5082530;28;20082;-92
2022/08/25 08:58:19;;;;;;;6.75;1.83;;;;;;;22.15;100.00;98455.00;5089091;28;20028;-91
2022/08/25 09:00:53;;;;;;;6.13;1.98;;;;;;;22.81;100.00;98462.47;5077158;28;20135;-93
2022/08/25 09:03:43;;;;;;;6.35;1.77;;;;;;;22.37;100.00;98471.47;5070278;28;20024;-94
2022/08/25 09:06:38;;;;;;;6.88;2.10;;;;;;;21.98;100.00;98453.38;5067871;28;20024;-93
2022/08/25 09:09:05;;;;;;;8.57;2.08;;;;;;;21.60;100.00;98445.91;5096652;28;20567;-94
2022/08/25 09:11:43;;;;;;;9.77;2.30;;;;;;;21.30;100.00;98440.59;5068934;28;20078;-91
2022/08/25 09:14:53;;;;;;;6.53;2.03;;;;;;;20.88;100.00;98432.34;5059356;28;20021;-91
2022/08/25 09:17:49;;;;;;;7.47;2.20;;;;;;;20.48;100.00;98431.03;5004981;28;20502;-93
2022/08/25 09:20:17;;;;;;;7.30;2.15;;;;;;;20.28;100.00;98407.34;5007300;28;20457;-93
2022/08/25 09:22:59;;;;;;;8.63;2.20;;;;;;;20.21;100.00;98395.38;5007220;28;20542;-94
2022/08/25 09:26:24;;;;;;;6.95;2.40;;;;;;;19.95;100.00;98380.91;5027050;28;20044;-93
2022/08/25 09:29:13;;;;;;;7.90;2.58;;;;;;;19.33;100.00;98375.28;4960123;28;20043;-93
2022/08/25 09:31:41;;;;;;;6.95;2.28;;;;;;;19.61;100.00;98362.34;4934058;29;20035;-92
2022/08/25 09:34:12;;;;;;;10.05;2.47;;;;;;;19.81;100.00;98371.06;4948794;29;20090;-95
2022/08/25 09:36:38;;;;;;;8.05;2.25;;;;;;;19.83;100.00;98366.53;4948886;29;20086;-93
2022/08/25 09:39:05;;;;;;;7.60;2.33;;;;;;;19.48;100.00;98355.13;4948827;28;20031;-91
2022/08/25 09:41:42;;;;;;;7.38;2.58;;;;;;;19.71;100.00;98367.16;4948816;28;20053;-95
2022/08/25 09:44:29;;;;;;;10.23;2.63;;;;;;;20.15;100.00;98373.69;4953142;28;20030;-96
2022/08/25 09:47:00;;;;;;;7.30;2.53;;;;;;;19.90;100.00;98373.22;4948401;28;20106;-93
2022/08/25 09:49:46;;;;;;;6.20;2.28;;;;;;;20.44;100.00;98357.03;4948336;28;20035;-95
2022/08/25 09:52:33;;;;;;;7.88;2.60;;;;;;;20.43;100.00;98367.72;4940341;28;20034;-94
2022/08/25 09:55:08;;;;;;;8.32;2.30;;;;;;;20.47;100.00;98371.91;4988026;28;20050;-94
2022/08/25 09:57:43;;;;;;;7.60;2.10;;;;;;;20.18;100.00;98349.69;4988777;28;20502;-93
2022/08/25 10:00:15;;;;;;;7.38;2.13;;;;;;;19.72;100.00;98350.34;5003904;28;20061;-92
2022/08/25 10:02:42;;;;;;;7.68;2.22;;;;;;;19.76;100.00;98351.88;5037798;28;20044;-94
2022/08/25 10:05:24;;;;;;;7.65;2.47;;;;;;;19.83;100.00;98347.16;5060237;28;20880;-91
2022/08/25 10:08:00;;;;;;;9.88;2.42;;;;;;;20.11;100.00;98330.63;5068375;28;20028;-91
2022/08/25 10:10:33;;;;;;;9.30;2.53;;;;;;;20.25;100.00;98332.50;5069279;28;20028;-92
2022/08/25 10:13:02;;;;;;;6.82;2.28;;;;;;;20.02;100.00;98337.28;5083643;28;20119;-92
2022/08/25 10:15:34;;;;;;;6.50;2.30;;;;;;;19.89;100.00;98352.13;5091976;28;20043;-92
2022/08/25 10:18:25;;;;;;;7.13;2.35;;;;;;;20.38;100.00;98341.50;5071416;28;20075;-92
2022/08/25 10:21:13;;;;;;;7.15;2.25;;;;;;;20.25;100.00;98345.75;5065777;28;20166;-93
2022/08/25 10:23:48;;;;;;;6.45;2.20;;;;;;;19.99;100.00;98363.94;5078731;28;20028;-94
2022/08/25 10:26:59;;;;;;;6.20;2.22;;;;;;;19.57;100.00;98359.94;5088205;28;20011;-92
2022/08/25 10:30:03;;;;;;;8.25;2.13;;;;;;;19.74;100.00;98359.06;5053265;28;20115;-92
2022/08/25 10:32:52;;;;;;;8.13;2.38;;;;;;;20.01;100.00;98340.84;5051350;28;20109;-92
2022/08/25 10:35:22;;;;;;;6.43;2.30;;;;;;;20.01;100.00;98359.38;5068085;28;20044;-93
2022/08/25 10:38:09;;;;;;;7.75;2.40;;;;;;;20.58;100.00;98340.34;5090039;28;20046;-92
2022/08/25 10:40:49;;;;;;;6.32;2.15;;;;;;;20.05;100.00;98345.03;5077203;28;20056;-92
2022/08/25 10:43:43;;;;;;;6.93;2.50;;;;;;;20.47;100.00;98361.31;5079890;28;20117;-93
2022/08/25 10:46:45;;;;;;;8.82;2.67;;;;;;;20.36;100.00;98331.91;5089255;28;20108;-92
2022/08/25 10:49:20;;;;;;;7.70;2.35;;;;;;;19.91;100.00;98337.00;5056471;28;20029;-96
2022/08/25 10:51:56;;;;;;;7.85;2.45;;;;;;;20.69;100.00;98329.19;5073818;28;20390;-94
2022/08/25 10:54:38;;;;;;;10.13;2.75;;;;;;;20.18;100.00;98333.78;5068769;28;20122;-94
2022/08/25 10:57:35;;;;;;;8.73;2.28;;;;;;;20.45;100.00;98344.66;5069217;28;20040;-92
2022/08/25 11:00:13;;;;;;;11.13;2.72;;;;;;;20.29;100.00;98331.41;5084772;28;20119;-94
2022/08/25 11:03:19;;;;;;;5.70;1.90;;;;;;;20.24;100.00;98339.59;5068425;28;20115;-94
2022/08/25 11:05:52;;;;;;;7.30;2.10;;;;;;;20.40;100.00;98334.31;5067200;28;20102;-94
2022/08/25 11:08:27;;;;;;;9.10;2.20;;;;;;;20.01;100.00;98340.84;5075938;28;20020;-95
2022/08/25 11:11:04;;;;;;;7.85;2.00;;;;;;;19.72;100.00;98358.28;5075305;28;20029;-95
2022/08/25 11:13:43;;;;;;;5.95;2.00;;;;;;;19.79;100.00;98354.34;5065355;28;20040;-94
2022/08/25 11:16:33;;;;;;;9.63;2.25;;;;;;;20.20;100.00;98346.00;5060590;28;20037;-95
2022/08/25 11:19:25;;;;;;;6.70;1.90;;;;;;;19.98;100.00;98364.84;5085853;28;20111;-95
2022/08/25 11:22:06;;;;;;;7.00;1.92;;;;;;;18.69;100.00;98346.69;5050676;28;20455;-93
2022/08/25 11:24:50;;;;;;;6.20;1.70;;;;;;;18.92;100.00;98350.84;5085268;28;20111;-94
2022/08/25 11:27:27;;;;;;;6.15;1.88;;;;;;;19.18;100.00;98338.13;5068140;28;20036;-93
2022/08/25 11:30:02;;;;;;;9.20;2.30;;;;;;;19.14;100.00;98338.34;5068757;28;20503;-96
2022/08/25 11:32:32;;;;;;;8.27;2.28;;;;;;;19.24;100.00;98337.81;5067425;28;20047;-94
2022/08/25 11:35:00;;;;;;;10.68;2.00;;;;;;;19.66;100.00;98351.50;5080968;28;20025;-95
2022/08/25 11:37:28;;;;;;;7.78;1.85;;;;;;;20.05;100.00;98330.97;5069778;28;20028;-93
2022/08/25 11:40:12;;;;;;;6.18;2.00;;;;;;;19.82;100.00;98343.66;5066558;28;20063;-96
2022/08/25 11:42:50;;;;;;;4.95;1.50;;;;;;;19.48;100.00;98344.56;5072540;28;20054;-94
2022/08/25 11:45:40;;;;;;;7.93;1.70;;;;;;;19.57;100.00;98352.88;5059995;28;20387;-94
2022/08/25 11:48:11;;;;;;;7.60;1.60;;;;;;;19.80;100.00;98352.63;5061734;28;20077;-94
2022/08/25 11:50:57;;;;;;;6.50;1.85;;;;;;;20.02;100.00;98339.09;5067564;28;20036;-94
2022/08/25 11:53:41;;;;;;;5.50;1.73;;;;;;;19.56;100.00;98352.94;5063364;28;20039;-93